Time;durP1;ratioP1;P1;durP2;ratioP2;P2;SDS_P1;SDS_P2;PMS_P1;PMS_P2;Temp;Humidity;BMP_temperature;BMP_pressure;BME280_temperature;BME280_humidity;BME280_pressure;Samples;Min_cycle;Max_cycle;Signal;HPM_P1;HPM_P2
2021/01/09 00:01:27;;;;;;;31.92;15.50;;;0.30;99.90;;;;;;4823512;29;20046;-86
2021/01/09 00:03:53;;;;;;;26.83;14.75;;;0.30;99.90;;;;;;4823375;29;20543;-87
2021/01/09 00:06:19;;;;;;;28.83;14.48;;;0.40;99.90;;;;;;4822687;29;20030;-87
2021/01/09 00:08:45;;;;;;;30.55;15.00;;;0.40;99.90;;;;;;4825313;29;20410;-87
2021/01/09 00:11:10;;;;;;;30.90;13.88;;;0.50;99.90;;;;;;4796400;29;20030;-87
2021/01/09 00:13:36;;;;;;;28.25;13.98;;;0.50;99.90;;;;;;4832970;29;20034;-87
2021/01/09 00:16:05;;;;;;;31.23;16.17;;;0.50;99.90;;;;;;4843960;29;20046;-89
2021/01/09 00:18:31;;;;;;;30.52;15.15;;;0.50;99.90;;;;;;4828238;29;20046;-88
2021/01/09 00:20:56;;;;;;;29.15;14.43;;;0.50;99.90;;;;;;4825800;29;20484;-89
2021/01/09 00:23:22;;;;;;;32.90;15.95;;;0.60;99.90;;;;;;4842815;29;20022;-89
2021/01/09 00:25:48;;;;;;;25.15;13.52;;;0.60;99.90;;;;;;4845866;29;20038;-87
2021/01/09 00:28:14;;;;;;;26.17;12.93;;;0.70;99.90;;;;;;4840977;29;20098;-89
2021/01/09 00:30:40;;;;;;;26.23;12.23;;;0.70;99.90;;;;;;4841458;29;20037;-89
2021/01/09 00:33:06;;;;;;;26.20;12.43;;;0.70;99.90;;;;;;4849796;29;20482;-89
2021/01/09 00:35:31;;;;;;;33.53;15.50;;;0.60;99.90;;;;;;4865981;29;20401;-89
2021/01/09 00:37:59;;;;;;;26.88;12.75;;;0.60;99.90;;;;;;4851514;29;20025;-89
2021/01/09 00:40:25;;;;;;;28.48;13.50;;;0.70;99.90;;;;;;4863200;29;20045;-89
2021/01/09 00:42:52;;;;;;;25.45;13.27;;;0.70;99.90;;;;;;4878004;29;20082;-90
2021/01/09 00:45:20;;;;;;;24.15;12.55;;;0.70;99.90;;;;;;4885390;29;20089;-89
2021/01/09 00:47:46;;;;;;;29.67;15.13;;;0.70;99.90;;;;;;4882237;29;20030;-87
2021/01/09 00:50:12;;;;;;;23.20;13.30;;;0.70;99.90;;;;;;4880401;29;20085;-88
2021/01/09 00:52:44;;;;;;;26.60;13.85;;;0.70;99.90;;;;;;4868914;29;20022;-88
2021/01/09 00:55:14;;;;;;;26.15;14.45;;;0.80;99.90;;;;;;4863198;29;20045;-87
2021/01/09 00:57:40;;;;;;;24.88;14.32;;;0.80;99.90;;;;;;4833464;29;20041;-88
2021/01/09 01:00:09;;;;;;;24.52;12.85;;;0.70;99.90;;;;;;4867218;29;20022;-86
2021/01/09 01:02:39;;;;;;;23.95;13.05;;;0.80;99.90;;;;;;4872012;29;20057;-87
2021/01/09 01:05:05;;;;;;;22.35;11.60;;;0.70;99.90;;;;;;4855048;29;20034;-86
2021/01/09 01:07:34;;;;;;;24.45;13.00;;;0.80;99.90;;;;;;4865240;29;20347;-87
2021/01/09 01:10:06;;;;;;;26.23;12.95;;;0.70;99.90;;;;;;4873380;29;20168;-89
2021/01/09 01:12:32;;;;;;;25.88;14.05;;;0.80;99.90;;;;;;4865927;29;20036;-88
2021/01/09 01:15:00;;;;;;;24.70;13.25;;;0.70;99.90;;;;;;4874755;29;20448;-89
2021/01/09 01:17:26;;;;;;;24.77;12.00;;;0.70;99.90;;;;;;4877734;29;20040;-87
2021/01/09 01:19:51;;;;;;;23.10;13.10;;;0.70;99.90;;;;;;4875342;29;20033;-89
2021/01/09 01:22:19;;;;;;;30.73;14.25;;;0.70;99.90;;;;;;4879856;29;20088;-87
2021/01/09 01:24:45;;;;;;;29.27;13.77;;;0.60;99.90;;;;;;4874478;29;20123;-88
2021/01/09 01:27:11;;;;;;;27.88;13.32;;;0.70;99.90;;;;;;4864918;29;20113;-88
2021/01/09 01:29:36;;;;;;;27.48;13.52;;;0.70;99.90;;;;;;4862894;29;20589;-87
2021/01/09 01:32:02;;;;;;;25.83;13.30;;;0.70;99.90;;;;;;4862323;29;20088;-86
2021/01/09 01:34:28;;;;;;;23.40;12.73;;;0.70;99.90;;;;;;4862848;29;20486;-88
2021/01/09 01:36:54;;;;;;;26.10;13.35;;;0.80;99.90;;;;;;4862902;29;20065;-86
2021/01/09 01:39:20;;;;;;;28.98;13.52;;;0.70;99.90;;;;;;4843569;29;20059;-87
2021/01/09 01:41:45;;;;;;;28.02;13.60;;;0.80;99.90;;;;;;4862111;29;20018;-87
2021/01/09 01:44:11;;;;;;;26.98;14.65;;;0.90;99.90;;;;;;4862334;29;20052;-89
2021/01/09 01:46:38;;;;;;;23.55;13.25;;;0.80;99.90;;;;;;4847525;29;20032;-89
2021/01/09 01:49:06;;;;;;;26.58;14.52;;;0.90;99.90;;;;;;4863321;29;20482;-88
2021/01/09 01:51:32;;;;;;;28.73;15.60;;;1.00;99.90;;;;;;4868766;29;20056;-90
2021/01/09 01:53:59;;;;;;;26.77;13.82;;;1.00;99.90;;;;;;4868936;29;20436;-90
2021/01/09 01:56:28;;;;;;;25.20;13.60;;;1.00;99.90;;;;;;4872113;29;20077;-88
2021/01/09 01:58:54;;;;;;;29.35;15.68;;;1.00;99.90;;;;;;4865605;29;20030;-88
2021/01/09 02:01:22;;;;;;;30.75;14.52;;;1.00;99.90;;;;;;4883619;29;20050;-89
2021/01/09 02:03:47;;;;;;;27.63;13.88;;;1.00;99.90;;;;;;4875591;29;20029;-87
2021/01/09 02:06:16;;;;;;;26.33;13.95;;;1.00;99.90;;;;;;4864972;29;20058;-87
2021/01/09 02:09:01;;;;;;;25.63;12.55;;;1.00;99.90;;;;;;4878094;29;20031;-88
2021/01/09 02:11:39;;;;;;;21.33;12.23;;;1.30;99.90;;;;;;4861088;29;20038;-87
2021/01/09 02:14:18;;;;;;;24.92;13.98;;;1.30;99.90;;;;;;4868127;29;20037;-89
2021/01/09 02:16:45;;;;;;;22.88;13.90;;;1.30;99.90;;;;;;4884711;29;20057;-88
2021/01/09 02:19:15;;;;;;;24.65;13.40;;;1.40;99.90;;;;;;4872910;29;20029;-88
2021/01/09 02:21:43;;;;;;;25.33;12.18;;;1.30;99.90;;;;;;4884208;29;20013;-89
2021/01/09 02:24:19;;;;;;;26.98;14.15;;;1.30;99.90;;;;;;4876065;29;20029;-89
2021/01/09 02:26:48;;;;;;;23.67;12.10;;;1.40;99.90;;;;;;4875899;29;20017;-89
2021/01/09 02:29:15;;;;;;;27.02;14.15;;;1.30;99.90;;;;;;4884300;29;20026;-88
2021/01/09 02:31:59;;;;;;;29.65;15.73;;;1.30;99.90;;;;;;4882969;29;20017;-88
2021/01/09 02:34:29;;;;;;;24.20;13.30;;;1.40;99.90;;;;;;4883143;29;20044;-87
2021/01/09 02:36:56;;;;;;;25.02;13.52;;;1.50;99.90;;;;;;4882312;29;20030;-88
2021/01/09 02:39:24;;;;;;;29.52;14.43;;;1.50;99.90;;;;;;4863960;29;20443;-89
2021/01/09 02:41:51;;;;;;;29.50;14.15;;;1.40;99.90;;;;;;4863687;29;20057;-88
2021/01/09 02:44:17;;;;;;;25.05;13.90;;;1.40;99.90;;;;;;4863283;29;20467;-89
2021/01/09 02:46:45;;;;;;;25.40;12.95;;;1.40;99.90;;;;;;4863854;29;20037;-90
2021/01/09 02:49:11;;;;;;;31.27;15.13;;;1.40;99.90;;;;;;4863890;29;20090;-90
2021/01/09 02:51:41;;;;;;;26.45;13.05;;;1.50;99.90;;;;;;4840447;29;20049;-91
2021/01/09 02:54:09;;;;;;;29.00;15.27;;;1.50;99.90;;;;;;4835288;29;20026;-90
2021/01/09 02:56:35;;;;;;;30.98;13.95;;;1.40;99.90;;;;;;4853129;29;20041;-89
2021/01/09 02:59:02;;;;;;;26.45;12.82;;;1.40;99.90;;;;;;4829084;29;20041;-89
2021/01/09 03:01:30;;;;;;;27.83;13.73;;;1.50;99.90;;;;;;4830499;29;20121;-89
2021/01/09 03:03:56;;;;;;;23.27;13.38;;;1.40;99.90;;;;;;4837174;29;20070;-88
2021/01/09 03:06:22;;;;;;;31.60;15.23;;;1.30;99.90;;;;;;4829823;29;20034;-90
2021/01/09 03:08:48;;;;;;;22.70;13.43;;;1.50;99.90;;;;;;4844073;29;20033;-89
2021/01/09 03:11:15;;;;;;;25.50;14.95;;;1.30;99.90;;;;;;4844630;29;20186;-90
2021/01/09 03:13:42;;;;;;;27.85;13.63;;;1.50;99.90;;;;;;4843162;29;20094;-91
2021/01/09 03:16:11;;;;;;;26.17;13.80;;;1.20;99.90;;;;;;4832519;29;20022;-90
2021/01/09 03:18:37;;;;;;;26.88;13.77;;;1.10;99.90;;;;;;4851040;29;20064;-90
2021/01/09 03:21:03;;;;;;;27.17;13.90;;;0.80;99.90;;;;;;4843480;29;20049;-89
2021/01/09 03:23:29;;;;;;;24.33;13.10;;;0.60;99.90;;;;;;4860936;29;20037;-89
2021/01/09 03:25:55;;;;;;;25.52;13.73;;;0.50;99.90;;;;;;4862262;29;20404;-89
2021/01/09 03:28:21;;;;;;;28.85;15.00;;;0.40;99.90;;;;;;4846247;29;20185;-89
2021/01/09 03:30:46;;;;;;;30.98;16.83;;;0.30;99.90;;;;;;4850626;29;20056;-91
2021/01/09 03:33:15;;;;;;;34.58;16.90;;;0.20;99.90;;;;;;4877579;29;20025;-89
2021/01/09 03:35:42;;;;;;;36.80;17.38;;;0.30;99.90;;;;;;4867408;29;20041;-88
2021/01/09 03:38:08;;;;;;;36.80;16.75;;;0.40;99.90;;;;;;4883049;29;20050;-90
2021/01/09 03:40:33;;;;;;;39.42;18.48;;;0.40;99.90;;;;;;4872234;29;20054;-90
2021/01/09 03:43:02;;;;;;;40.70;17.92;;;0.50;99.90;;;;;;4863682;29;20062;-89
2021/01/09 03:45:28;;;;;;;41.08;18.90;;;0.60;99.90;;;;;;4846111;29;20061;-90
2021/01/09 03:47:56;;;;;;;46.05;20.67;;;0.70;99.90;;;;;;4869311;29;20034;-89
2021/01/09 03:50:22;;;;;;;43.83;19.08;;;0.70;99.90;;;;;;4859370;29;20018;-89
2021/01/09 03:52:48;;;;;;;35.78;19.02;;;0.80;99.90;;;;;;4864534;29;20085;-90
2021/01/09 03:55:13;;;;;;;35.03;18.33;;;0.80;99.90;;;;;;4854277;29;20037;-89
2021/01/09 03:57:41;;;;;;;40.15;19.45;;;0.70;99.90;;;;;;4883032;29;20052;-89
2021/01/09 04:00:08;;;;;;;38.97;18.70;;;0.70;99.90;;;;;;4964587;23;20068;-88
2021/01/09 04:02:36;;;;;;;41.85;18.80;;;0.70;99.90;;;;;;4874870;29;20033;-91
2021/01/09 04:05:03;;;;;;;45.67;21.05;;;0.70;99.90;;;;;;4875458;29;20034;-87
2021/01/09 04:07:29;;;;;;;39.88;18.20;;;0.60;99.90;;;;;;4861021;29;20037;-90
2021/01/09 04:09:57;;;;;;;38.70;18.42;;;0.50;99.90;;;;;;4867376;29;20029;-89
2021/01/09 04:12:23;;;;;;;37.35;19.38;;;0.50;99.90;;;;;;4865172;29;20026;-89
2021/01/09 04:14:49;;;;;;;43.85;21.55;;;0.40;99.90;;;;;;4881826;29;20030;-88
2021/01/09 04:17:14;;;;;;;45.45;20.38;;;0.50;99.90;;;;;;4864527;29;20346;-87
2021/01/09 04:19:40;;;;;;;39.28;18.95;;;0.50;99.90;;;;;;4875147;29;20026;-88
2021/01/09 04:22:06;;;;;;;39.10;19.65;;;0.50;99.90;;;;;;4881834;29;20032;-88
2021/01/09 04:24:32;;;;;;;51.25;21.92;;;0.50;99.90;;;;;;4868705;29;20535;-87
2021/01/09 04:27:01;;;;;;;46.88;19.67;;;0.50;99.90;;;;;;4861375;29;20460;-88
2021/01/09 04:29:30;;;;;;;40.45;19.30;;;0.50;99.90;;;;;;4861981;29;20036;-88
2021/01/09 04:31:56;;;;;;;43.47;19.48;;;0.60;99.90;;;;;;4859989;29;20034;-88
2021/01/09 04:34:24;;;;;;;41.33;19.92;;;0.70;99.90;;;;;;4861447;29;20040;-90
2021/01/09 04:36:50;;;;;;;41.40;18.98;;;0.70;99.90;;;;;;4873490;29;20036;-91
2021/01/09 04:39:17;;;;;;;46.95;17.92;;;0.90;99.90;;;;;;4896119;29;20053;-88
2021/01/09 04:41:44;;;;;;;37.97;18.73;;;1.00;99.90;;;;;;4879041;29;20033;-88
2021/01/09 04:44:11;;;;;;;41.42;18.65;;;1.00;99.90;;;;;;4872404;29;20056;-91
2021/01/09 04:47:01;;;;;;;39.88;18.55;;;0.90;99.90;;;;;;4842734;29;20027;-89
2021/01/09 04:49:30;;;;;;;40.72;20.33;;;1.00;99.90;;;;;;4836931;29;20030;-89
2021/01/09 04:51:58;;;;;;;38.03;17.63;;;0.90;99.90;;;;;;4860834;29;20022;-89
2021/01/09 04:54:26;;;;;;;34.25;17.23;;;0.90;99.90;;;;;;4856870;29;20038;-89
2021/01/09 04:56:54;;;;;;;41.33;17.48;;;0.80;99.90;;;;;;4847603;29;20042;-90
2021/01/09 04:59:21;;;;;;;33.65;16.63;;;0.80;99.90;;;;;;4854226;29;20089;-88
2021/01/09 05:01:49;;;;;;;37.38;17.67;;;0.80;99.90;;;;;;4869482;29;20037;-88
2021/01/09 05:04:16;;;;;;;37.42;15.82;;;0.80;99.90;;;;;;4850374;29;20042;-89
2021/01/09 05:06:46;;;;;;;36.25;16.92;;;0.90;99.90;;;;;;4827942;29;20106;-88
2021/01/09 05:09:13;;;;;;;38.30;18.15;;;1.10;99.90;;;;;;4871319;29;20042;-89
2021/01/09 05:11:41;;;;;;;37.45;17.58;;;1.20;99.90;;;;;;4863345;29;20043;-88
2021/01/09 05:14:08;;;;;;;40.55;19.23;;;1.10;99.90;;;;;;4880865;29;20053;-88
2021/01/09 05:16:35;;;;;;;38.40;17.50;;;1.10;99.90;;;;;;4854212;29;20044;-90
2021/01/09 05:19:03;;;;;;;47.42;21.30;;;1.10;99.90;;;;;;4836081;29;20030;-89
2021/01/09 05:21:30;;;;;;;41.58;17.52;;;1.10;99.90;;;;;;4871256;29;20034;-92
2021/01/09 05:23:59;;;;;;;45.78;18.05;;;1.10;99.90;;;;;;4839834;29;20046;-90
2021/01/09 05:26:26;;;;;;;39.20;18.90;;;1.10;99.90;;;;;;4862523;29;20032;-89
2021/01/09 05:28:56;;;;;;;39.53;19.05;;;1.10;99.90;;;;;;4867407;29;20093;-90
2021/01/09 05:31:24;;;;;;;38.92;18.55;;;1.10;99.90;;;;;;4865455;29;20089;-90
2021/01/09 05:33:53;;;;;;;48.63;18.90;;;1.10;99.90;;;;;;4863395;29;20037;-89
2021/01/09 05:36:26;;;;;;;47.00;20.60;;;1.20;99.90;;;;;;4870280;29;20041;-90
2021/01/09 05:38:51;;;;;;;54.03;22.23;;;1.10;99.90;;;;;;4866044;29;20033;-89
2021/01/09 05:41:19;;;;;;;44.88;19.48;;;1.10;99.90;;;;;;4862424;29;20040;-90
2021/01/09 05:44:06;;;;;;;49.50;21.23;;;1.10;99.90;;;;;;4879216;29;20034;-90
2021/01/09 05:46:35;;;;;;;45.60;20.33;;;1.10;99.90;;;;;;4856724;29;20038;-89
2021/01/09 05:49:06;;;;;;;45.70;19.38;;;1.10;99.90;;;;;;4857857;29;20072;-86
2021/01/09 05:51:34;;;;;;;48.80;22.88;;;1.00;99.90;;;;;;4844977;29;20589;-88
2021/01/09 05:54:00;;;;;;;52.90;21.88;;;1.20;99.90;;;;;;4840022;29;20485;-88
2021/01/09 05:56:26;;;;;;;48.53;21.38;;;1.10;99.90;;;;;;4817473;29;20031;-91
2021/01/09 05:58:53;;;;;;;57.15;23.67;;;1.20;99.90;;;;;;4830479;29;20381;-87
2021/01/09 06:01:27;;;;;;;51.75;21.50;;;1.20;99.90;;;;;;4834475;29;20057;-88
2021/01/09 06:04:07;;;;;;;52.05;22.27;;;1.30;99.90;;;;;;4843887;29;20045;-89
2021/01/09 06:06:55;;;;;;;48.80;21.63;;;1.20;99.90;;;;;;4845142;29;20027;-91
2021/01/09 06:09:24;;;;;;;60.97;22.42;;;1.30;99.90;;;;;;4805389;29;20098;-88
2021/01/09 06:11:55;;;;;;;56.60;23.67;;;1.30;99.90;;;;;;4813550;29;20031;-87
2021/01/09 06:14:27;;;;;;;55.13;22.58;;;1.30;99.90;;;;;;4806392;29;20055;-90
2021/01/09 06:16:55;;;;;;;49.22;20.90;;;1.30;99.90;;;;;;4819385;29;20035;-88
2021/01/09 06:19:22;;;;;;;56.05;23.83;;;1.30;99.90;;;;;;4863888;29;20022;-89
2021/01/09 06:21:47;;;;;;;47.67;20.95;;;1.40;99.90;;;;;;4848163;29;20345;-88
2021/01/09 06:24:16;;;;;;;54.72;21.10;;;1.40;99.90;;;;;;4859927;29;20034;-88
2021/01/09 06:26:42;;;;;;;54.63;23.58;;;1.30;99.90;;;;;;4843171;29;20089;-88
2021/01/09 06:29:21;;;;;;;49.38;24.40;;;1.30;99.90;;;;;;4842299;29;20026;-89
2021/01/09 06:32:04;;;;;;;50.25;22.45;;;1.30;99.90;;;;;;4829876;29;20030;-89
2021/01/09 06:34:32;;;;;;;43.40;21.48;;;1.30;99.90;;;;;;4826875;29;20050;-89
2021/01/09 06:37:02;;;;;;;51.13;22.65;;;1.40;99.90;;;;;;4841384;29;20150;-89
2021/01/09 06:39:32;;;;;;;46.60;22.00;;;1.40;99.90;;;;;;4842166;29;20069;-89
2021/01/09 06:42:00;;;;;;;46.45;20.92;;;1.40;99.90;;;;;;4842398;29;20041;-89
2021/01/09 06:44:29;;;;;;;45.42;21.75;;;1.50;99.90;;;;;;4821421;29;20098;-90
2021/01/09 06:46:55;;;;;;;48.30;20.80;;;1.40;99.90;;;;;;4867103;29;20037;-89
2021/01/09 06:49:23;;;;;;;45.42;20.45;;;1.40;99.90;;;;;;4883341;29;20101;-89
2021/01/09 06:52:07;;;;;;;45.92;20.10;;;1.30;99.90;;;;;;4877038;29;20046;-89
2021/01/09 06:54:38;;;;;;;52.00;23.40;;;1.30;99.90;;;;;;4848914;29;20041;-88
2021/01/09 06:57:13;;;;;;;;;;;1.20;99.90;;;;;;4855875;29;20041;-89
2021/01/09 06:59:43;;;;;;;52.47;21.35;;;1.30;99.90;;;;;;4859404;29;20330;-89
2021/01/09 07:02:16;;;;;;;51.20;22.88;;;1.40;99.90;;;;;;4846666;29;20010;-88
2021/01/09 07:04:53;;;;;;;58.47;24.20;;;1.30;99.90;;;;;;4881250;29;20194;-88
2021/01/09 07:07:36;;;;;;;53.42;24.17;;;1.30;99.90;;;;;;4883065;29;20025;-88
2021/01/09 07:10:29;;;;;;;51.22;23.70;;;1.30;99.90;;;;;;4867194;29;20045;-88
2021/01/09 07:13:07;;;;;;;55.45;22.30;;;1.50;99.90;;;;;;4834241;29;20550;-87
2021/01/09 07:15:36;;;;;;;55.83;21.88;;;1.30;99.90;;;;;;4815552;29;20127;-87
2021/01/09 07:18:07;;;;;;;48.38;22.40;;;1.30;99.90;;;;;;4788500;30;20452;-87
2021/01/09 07:20:51;;;;;;;50.53;22.55;;;1.30;99.90;;;;;;4778239;30;20501;-88
2021/01/09 07:23:21;;;;;;;49.63;21.45;;;1.40;99.90;;;;;;4770398;30;20043;-88
2021/01/09 07:25:49;;;;;;;55.03;22.48;;;1.40;99.90;;;;;;4785946;30;20039;-88
2021/01/09 07:28:24;;;;;;;52.88;22.35;;;1.40;99.90;;;;;;4786024;30;20043;-88
2021/01/09 07:31:13;;;;;;;49.40;22.52;;;1.50;99.90;;;;;;4770868;30;20097;-88
2021/01/09 07:33:46;;;;;;;50.88;22.85;;;1.60;99.90;;;;;;4773047;30;20028;-89
2021/01/09 07:36:17;;;;;;;51.10;22.45;;;1.50;99.90;;;;;;4770798;30;20138;-90
2021/01/09 07:38:44;;;;;;;67.40;25.75;;;1.40;99.90;;;;;;4767241;30;20093;-89
2021/01/09 07:41:33;;;;;;;54.25;23.55;;;1.50;99.90;;;;;;4773832;30;20032;-89
2021/01/09 07:44:19;;;;;;;59.17;25.90;;;1.60;99.90;;;;;;4772294;30;20570;-89
2021/01/09 07:46:56;;;;;;;65.50;27.08;;;1.60;99.90;;;;;;4787703;30;20042;-89
2021/01/09 07:49:29;;;;;;;69.45;27.17;;;1.60;99.90;;;;;;4781784;29;20038;-88
2021/01/09 07:52:01;;;;;;;62.30;27.23;;;1.70;99.90;;;;;;4820909;29;20026;-87
2021/01/09 07:54:55;;;;;;;75.47;27.52;;;1.60;99.90;;;;;;4828649;29;20031;-88
2021/01/09 07:57:27;;;;;;;78.53;28.20;;;1.60;99.90;;;;;;4806222;29;20042;-88
2021/01/09 07:59:55;;;;;;;77.13;28.60;;;1.50;99.90;;;;;;4788856;30;20074;-87
2021/01/09 08:02:29;;;;;;;68.95;27.90;;;1.50;99.90;;;;;;4807116;29;20035;-86
2021/01/09 08:05:09;;;;;;;73.50;30.02;;;1.50;99.90;;;;;;4779085;29;20051;-86
2021/01/09 08:07:45;;;;;;;81.13;32.33;;;1.50;99.90;;;;;;4784678;30;20032;-88
2021/01/09 08:10:27;;;;;;;86.30;34.15;;;1.60;99.90;;;;;;4801787;29;20031;-87
2021/01/09 08:13:10;;;;;;;96.15;34.42;;;1.70;99.90;;;;;;4794128;29;20028;-86
2021/01/09 08:15:37;;;;;;;107.70;35.28;;;1.70;99.90;;;;;;4778363;29;20052;-88
2021/01/09 08:18:20;;;;;;;109.28;37.60;;;1.80;99.90;;;;;;4785483;29;20020;-89
2021/01/09 08:20:52;;;;;;;95.43;33.88;;;1.80;99.90;;;;;;4794078;30;20051;-87
2021/01/09 08:23:18;;;;;;;93.45;31.73;;;1.70;99.90;;;;;;4783569;29;20028;-89
2021/01/09 08:25:44;;;;;;;93.82;35.67;;;1.80;99.90;;;;;;4785432;30;20062;-87
2021/01/09 08:28:11;;;;;;;89.68;33.92;;;1.80;99.90;;;;;;4779564;29;20046;-89
2021/01/09 08:30:39;;;;;;;95.55;35.60;;;1.80;99.90;;;;;;4775156;30;20043;-88
2021/01/09 08:33:07;;;;;;;102.35;37.38;;;1.90;99.90;;;;;;4786519;29;20038;-85
2021/01/09 08:35:34;;;;;;;104.78;34.95;;;2.00;99.90;;;;;;4859073;29;20037;-88
2021/01/09 08:38:00;;;;;;;112.60;39.53;;;2.00;99.90;;;;;;4897356;29;20041;-88
2021/01/09 08:40:26;;;;;;;123.93;41.88;;;2.00;99.90;;;;;;4884970;29;20013;-88
2021/01/09 08:42:56;;;;;;;119.85;39.53;;;1.90;99.90;;;;;;4885971;29;20097;-89
2021/01/09 08:45:38;;;;;;;116.18;37.30;;;1.90;99.90;;;;;;4884226;29;20026;-89
2021/01/09 08:48:12;;;;;;;118.38;39.83;;;1.90;99.90;;;;;;4886192;29;20055;-89
2021/01/09 08:51:29;;;;;;;126.30;40.40;;;1.90;99.90;;;;;;4859035;29;20049;-87
2021/01/09 08:53:58;;;;;;;107.38;38.28;;;2.00;99.90;;;;;;4845955;29;20124;-89
2021/01/09 08:56:31;;;;;;;131.13;42.42;;;1.90;99.90;;;;;;4833975;29;20048;-91
2021/01/09 08:59:05;;;;;;;124.95;38.67;;;2.00;99.90;;;;;;4882058;29;20025;-85
2021/01/09 09:02:02;;;;;;;115.88;38.92;;;2.00;99.90;;;;;;4867274;29;20105;-86
2021/01/09 09:04:31;;;;;;;120.13;40.33;;;2.00;99.90;;;;;;4865666;29;20483;-86
2021/01/09 09:07:06;;;;;;;111.30;37.80;;;2.00;99.90;;;;;;4866149;29;20029;-89
2021/01/09 09:09:43;;;;;;;102.22;35.63;;;1.90;99.90;;;;;;4870321;29;20089;-86
2021/01/09 09:12:10;;;;;;;119.28;38.13;;;2.00;99.90;;;;;;4878501;29;20030;-88
2021/01/09 09:14:55;;;;;;;115.43;39.53;;;1.90;99.90;;;;;;4882531;29;20018;-87
2021/01/09 09:17:24;;;;;;;112.55;35.58;;;2.00;99.90;;;;;;4883821;29;20041;-88
2021/01/09 09:19:57;;;;;;;98.88;33.15;;;1.90;99.90;;;;;;4881904;29;20089;-88
2021/01/09 09:22:30;;;;;;;106.47;33.75;;;2.00;99.90;;;;;;4881330;29;20478;-89
2021/01/09 09:24:59;;;;;;;103.50;34.63;;;2.20;99.90;;;;;;4867593;29;20029;-88
2021/01/09 09:27:29;;;;;;;98.18;36.22;;;2.10;99.90;;;;;;4866760;29;20054;-88
2021/01/09 09:30:18;;;;;;;104.07;36.67;;;2.20;99.90;;;;;;4865132;29;20037;-87
2021/01/09 09:32:48;;;;;;;98.78;34.47;;;2.30;99.90;;;;;;4866586;29;20026;-88
2021/01/09 09:35:30;;;;;;;108.53;35.30;;;2.40;99.90;;;;;;4877722;29;20046;-89
2021/01/09 09:38:03;;;;;;;116.10;40.40;;;2.20;99.90;;;;;;4865746;29;20029;-87
2021/01/09 09:40:38;;;;;;;113.70;34.85;;;2.20;99.90;;;;;;4865876;29;20025;-88
2021/01/09 09:43:13;;;;;;;105.82;35.88;;;2.30;99.90;;;;;;4869265;29;20033;-87
2021/01/09 09:45:53;;;;;;;110.18;40.63;;;2.50;99.90;;;;;;4867175;29;20577;-88
2021/01/09 09:48:29;;;;;;;109.18;36.05;;;2.50;99.90;;;;;;4855378;29;20033;-88
2021/01/09 09:51:08;;;;;;;99.03;35.65;;;2.50;99.90;;;;;;4851493;29;20033;-87
2021/01/09 09:53:40;;;;;;;109.10;33.47;;;2.60;99.90;;;;;;4838714;29;20049;-87
2021/01/09 09:56:14;;;;;;;93.85;31.95;;;2.60;99.90;;;;;;4875638;29;20026;-88
2021/01/09 09:58:40;;;;;;;92.05;31.25;;;2.60;99.90;;;;;;4869185;29;20101;-88
2021/01/09 10:01:24;;;;;;;97.80;31.75;;;2.80;99.90;;;;;;4877872;29;20074;-88
2021/01/09 10:03:50;;;;;;;77.18;30.77;;;2.90;99.90;;;;;;4867921;29;20033;-89
2021/01/09 10:06:17;;;;;;;95.72;32.15;;;2.80;99.90;;;;;;4873889;29;20060;-89
2021/01/09 10:08:46;;;;;;;96.35;31.75;;;2.90;99.90;;;;;;4876755;29;20084;-85
2021/01/09 10:11:13;;;;;;;82.22;28.77;;;3.00;99.90;;;;;;4879010;29;20069;-87
2021/01/09 10:13:43;;;;;;;87.00;31.63;;;3.10;99.90;;;;;;4867977;29;20034;-87
2021/01/09 10:16:10;;;;;;;77.22;30.10;;;3.10;99.90;;;;;;4864903;29;20372;-90
2021/01/09 10:18:36;;;;;;;83.68;29.30;;;3.10;99.90;;;;;;4864803;29;20053;-89
2021/01/09 10:21:03;;;;;;;92.13;33.83;;;3.10;99.90;;;;;;4863569;29;20033;-89
2021/01/09 10:23:28;;;;;;;88.07;30.08;;;3.10;99.90;;;;;;4863946;29;20029;-88
2021/01/09 10:25:59;;;;;;;72.72;30.73;;;3.10;99.90;;;;;;4865745;29;20077;-89
2021/01/09 10:28:25;;;;;;;95.35;33.55;;;3.10;99.90;;;;;;4864446;29;20386;-89
2021/01/09 10:30:51;;;;;;;84.18;32.03;;;3.00;99.90;;;;;;4849150;29;20037;-86
2021/01/09 10:33:17;;;;;;;75.38;31.50;;;3.00;99.90;;;;;;4876155;29;20028;-88
2021/01/09 10:35:50;;;;;;;77.22;30.52;;;3.00;99.90;;;;;;4882501;29;20033;-88
2021/01/09 10:38:17;;;;;;;81.15;30.23;;;2.90;99.90;;;;;;4882545;29;20219;-90
2021/01/09 10:40:46;;;;;;;81.63;30.58;;;2.80;99.90;;;;;;4884757;29;20155;-88
2021/01/09 10:43:11;;;;;;;80.50;33.13;;;2.80;99.90;;;;;;4884169;29;20062;-89
2021/01/09 10:45:38;;;;;;;94.20;34.55;;;2.80;99.90;;;;;;4884266;29;20026;-89
2021/01/09 10:48:15;;;;;;;93.43;32.67;;;2.90;99.90;;;;;;4883118;29;20037;-89
2021/01/09 10:50:49;;;;;;;77.53;30.55;;;2.90;99.90;;;;;;4870856;29;20053;-90
2021/01/09 10:53:15;;;;;;;59.45;29.20;;;3.00;99.90;;;;;;4865570;29;20033;-89
2021/01/09 10:55:47;;;;;;;83.82;30.33;;;3.10;99.90;;;;;;4865182;29;20034;-91
2021/01/09 10:58:19;;;;;;;87.10;29.88;;;3.10;99.90;;;;;;4866292;29;20032;-88
2021/01/09 11:01:10;;;;;;;83.70;30.40;;;3.10;99.90;;;;;;4865209;29;20081;-88
2021/01/09 11:03:58;;;;;;;72.85;28.40;;;3.20;99.90;;;;;;4860611;29;20021;-90
2021/01/09 11:06:24;;;;;;;68.40;27.35;;;3.20;99.90;;;;;;4864065;29;20045;-87
2021/01/09 11:09:42;;;;;;;63.45;27.60;;;3.20;99.90;;;;;;4863317;29;20036;-87
2021/01/09 11:12:17;;;;;;;61.50;26.33;;;3.10;99.90;;;;;;4853845;29;20041;-87
2021/01/09 11:14:48;;;;;;;66.32;25.40;;;3.00;99.90;;;;;;4864459;29;20146;-88
2021/01/09 11:17:14;;;;;;;71.65;29.80;;;2.90;99.90;;;;;;4848293;29;20061;-87
2021/01/09 11:19:39;;;;;;;63.70;29.67;;;3.00;99.90;;;;;;4848148;29;20029;-88
2021/01/09 11:25:41;;;;;;;66.97;29.58;;;2.90;99.90;;;;;;4836437;29;20076;-89
2021/01/09 11:28:07;;;;;;;69.45;27.98;;;2.90;99.90;;;;;;4864840;29;20122;-86
2021/01/09 11:30:32;;;;;;;67.00;28.00;;;3.00;99.90;;;;;;4866606;29;20583;-87
2021/01/09 11:32:59;;;;;;;74.82;30.38;;;3.00;99.90;;;;;;4865071;29;20025;-88
2021/01/09 11:35:25;;;;;;;75.90;28.10;;;3.00;99.90;;;;;;4864386;29;20052;-82
2021/01/09 11:37:51;;;;;;;74.43;29.77;;;3.00;99.90;;;;;;4861675;29;20018;-83
2021/01/09 11:40:17;;;;;;;85.10;31.00;;;3.00;99.90;;;;;;4861833;29;20026;-82
2021/01/09 11:42:42;;;;;;;68.20;25.88;;;3.00;99.90;;;;;;4862027;29;20022;-82
2021/01/09 11:45:12;;;;;;;76.15;29.50;;;3.20;99.90;;;;;;4845688;29;20092;-83
2021/01/09 11:47:42;;;;;;;66.97;28.85;;;3.30;99.90;;;;;;4862190;29;20094;-88
2021/01/09 11:50:12;;;;;;;64.20;27.65;;;3.30;99.90;;;;;;4848340;29;20029;-90
2021/01/09 11:52:48;;;;;;;65.95;29.17;;;3.20;99.90;;;;;;4864901;29;20041;-89
2021/01/09 11:55:14;;;;;;;56.92;27.20;;;3.20;99.90;;;;;;4866166;29;20056;-87
2021/01/09 11:57:40;;;;;;;75.55;29.95;;;3.20;99.90;;;;;;4865286;29;20380;-89
2021/01/09 12:00:16;;;;;;;72.38;29.98;;;3.20;99.90;;;;;;4852405;29;20080;-88
2021/01/09 12:02:45;;;;;;;78.53;29.95;;;3.20;99.90;;;;;;4856437;29;20050;-87
2021/01/09 12:05:11;;;;;;;79.35;30.92;;;3.00;99.90;;;;;;4881231;29;20034;-88
2021/01/09 12:07:39;;;;;;;86.32;30.05;;;3.20;99.90;;;;;;4865651;29;20038;-88
2021/01/09 12:10:08;;;;;;;72.57;29.13;;;3.10;99.90;;;;;;4861841;29;20165;-87
2021/01/09 12:13:18;;;;;;;;;;;;;;;;;;;;;
2021/01/09 12:15:51;;;;;;;86.30;31.95;;;2.90;99.90;;;;;;4787393;29;20058;-89
2021/01/09 12:18:19;;;;;;;84.60;33.70;;;2.90;99.90;;;;;;4792510;29;20089;-87
2021/01/09 12:20:49;;;;;;;79.65;33.00;;;2.90;99.90;;;;;;4817316;29;20035;-89
2021/01/09 12:23:15;;;;;;;92.15;33.50;;;3.00;99.90;;;;;;4802749;29;20037;-88
2021/01/09 12:25:41;;;;;;;90.85;32.75;;;3.10;99.90;;;;;;4799885;29;20043;-88
2021/01/09 12:28:23;;;;;;;95.43;35.10;;;3.10;99.90;;;;;;4796778;29;20117;-87
2021/01/09 12:30:49;;;;;;;89.32;34.70;;;3.20;99.90;;;;;;4813162;29;20050;-87
2021/01/09 12:33:22;;;;;;;88.65;32.35;;;3.20;99.90;;;;;;4815311;29;20035;-89
2021/01/09 12:35:50;;;;;;;88.32;32.88;;;3.20;99.90;;;;;;4819543;29;20099;-88
2021/01/09 12:38:18;;;;;;;91.85;34.15;;;3.30;99.90;;;;;;4809559;29;20031;-88
2021/01/09 12:40:46;;;;;;;79.45;31.88;;;3.30;99.90;;;;;;4797347;29;20033;-89
2021/01/09 12:43:28;;;;;;;76.32;32.13;;;3.40;99.90;;;;;;4786069;29;20027;-88
2021/01/09 12:45:57;;;;;;;88.60;35.33;;;3.40;99.90;;;;;;4789126;29;20031;-87
2021/01/09 12:48:26;;;;;;;80.68;30.90;;;3.40;99.90;;;;;;4801909;29;20096;-89
2021/01/09 12:50:52;;;;;;;80.10;32.03;;;3.30;99.90;;;;;;4807589;29;20077;-89
2021/01/09 12:53:21;;;;;;;85.78;32.53;;;3.30;99.90;;;;;;4779330;30;20024;-89
2021/01/09 12:55:49;;;;;;;69.88;31.00;;;3.40;99.90;;;;;;4776005;29;20039;-89
2021/01/09 12:58:15;;;;;;;76.70;31.85;;;3.40;99.90;;;;;;4787228;30;20047;-91